Time;durP1;ratioP1;P1;durP2;ratioP2;P2;SDS_P1;SDS_P2;PMS_P1;PMS_P2;Temp;Humidity;BMP_temperature;BMP_pressure;BME280_temperature;BME280_humidity;BME280_pressure;Samples;Min_cycle;Max_cycle;Signal;HPM_P1;HPM_P2
2022/01/25 00:28:38;;;;;;;;;;;;;;;;;;;;;
2022/01/25 00:31:18;;;;;;;32.97;18.42;;;;;;;2.54;91.33;102122.38;4896963;29;20555;-93
2022/01/25 00:33:55;;;;;;;31.50;18.67;;;;;;;2.15;91.28;102053.88;4902599;29;20634;-93
2022/01/25 00:36:35;;;;;;;32.90;18.83;;;;;;;2.26;91.74;102092.38;4888673;29;20063;-96
2022/01/25 00:39:07;;;;;;;30.83;18.90;;;;;;;2.06;92.13;102059.84;4882564;29;20060;-94
2022/01/25 00:41:51;;;;;;;30.00;18.40;;;;;;;2.42;92.33;102127.44;4888716;29;20044;-93
2022/01/25 00:44:40;;;;;;;32.05;19.13;;;;;;;2.02;91.80;102060.69;4881509;29;20056;-93
2022/01/25 00:47:20;;;;;;;27.88;18.52;;;;;;;2.06;91.99;102065.06;4889509;29;20056;-94
2022/01/25 00:49:54;;;;;;;29.95;18.95;;;;;;;2.08;92.02;102076.41;4875074;29;20132;-94
2022/01/25 00:53:54;;;;;;;29.23;19.27;;;;;;;2.21;92.25;102093.16;4899220;29;20057;-94
2022/01/25 00:55:21;;;;;;;35.20;20.05;;;;;;;2.33;92.43;102122.97;4894835;29;20151;-94
2022/01/25 00:58:01;;;;;;;;;;;;;;;2.35;93.56;102109.94;4893685;29;20067;-94
2022/01/25 01:00:35;;;;;;;30.83;18.23;;;;;;;2.00;93.33;102044.97;4875631;29;20323;-94
2022/01/25 01:03:12;;;;;;;33.03;20.65;;;;;;;2.00;93.19;102041.47;4890690;29;20147;-93
2022/01/25 01:05:49;;;;;;;;;;;;;;;;;;;;;
2022/01/25 01:08:20;;;;;;;29.83;18.85;;;;;;;1.90;92.71;102040.44;4888625;29;20049;-94
2022/01/25 01:11:13;;;;;;;29.83;18.30;;;;;;;2.17;93.43;102087.03;4881791;29;20149;-92
2022/01/25 01:13:59;;;;;;;30.55;18.42;;;;;;;2.08;93.14;102085.13;4895964;29;20057;-93
2022/01/25 01:31:26;;;;;;;31.85;19.30;;;;;;;1.88;94.73;102075.28;4885136;29;20048;-94
2022/01/25 01:43:28;;;;;;;30.42;19.38;;;;;;;1.62;94.87;102059.16;4895669;29;20056;-94
2022/01/25 01:49:05;;;;;;;32.63;20.02;;;;;;;1.73;94.42;102086.34;4894752;29;20049;-95
2022/01/25 01:51:55;;;;;;;35.83;20.15;;;;;;;1.49;94.88;102059.81;4891820;29;20096;-93
2022/01/25 01:54:32;;;;;;;30.70;19.63;;;;;;;1.79;95.09;102115.16;4897899;29;20044;-93
2022/01/25 01:57:01;;;;;;;32.53;19.92;;;;;;;1.55;95.66;102079.09;4895044;29;20048;-92
2022/01/25 01:59:38;;;;;;;34.45;19.25;;;;;;;1.36;95.22;102041.34;4892341;29;20049;-94
2022/01/25 02:02:19;;;;;;;35.05;21.05;;;;;;;1.59;95.88;102080.88;4878199;29;20061;-94
2022/01/25 02:04:50;;;;;;;33.17;19.67;;;;;;;1.47;96.23;102066.75;4880987;29;20052;-93
2022/01/25 02:07:29;;;;;;;33.25;19.85;;;;;;;1.32;95.98;102034.31;4897337;29;20078;-92
2022/01/25 02:10:09;;;;;;;34.40;20.63;;;;;;;1.51;95.96;102069.44;4873244;29;20051;-93
2022/01/25 02:12:46;;;;;;;31.80;20.05;;;;;;;1.26;95.88;102039.44;4898866;29;20091;-94
2022/01/25 02:15:25;;;;;;;35.42;20.25;;;;;;;1.37;96.28;102068.34;4897290;29;20059;-96
2022/01/25 02:23:54;;;;;;;41.47;21.70;;;;;;;1.35;96.56;102083.09;4898260;29;20048;-94
2022/01/25 02:26:36;;;;;;;35.55;21.40;;;;;;;1.28;96.53;102073.38;4905908;29;20052;-94
2022/01/25 02:29:06;;;;;;;36.90;21.08;;;;;;;1.22;96.68;102057.63;4902679;29;20457;-93
2022/01/25 02:31:33;;;;;;;36.35;21.35;;;;;;;1.10;96.57;102047.00;4894057;29;20104;-94
2022/01/25 02:34:06;;;;;;;35.58;21.67;;;;;;;1.07;96.54;102039.09;4903022;29;20053;-92
2022/01/25 02:36:35;;;;;;;35.70;21.90;;;;;;;1.17;96.95;102069.72;4889045;29;20095;-95
2022/01/25 02:39:13;;;;;;;34.40;21.55;;;;;;;0.99;97.23;102050.25;4902020;29;20055;-94
2022/01/25 02:41:40;;;;;;;36.55;22.02;;;;;;;1.28;97.45;102097.75;4896993;29;20419;-93
2022/01/25 02:44:23;;;;;;;39.72;23.27;;;;;;;1.28;97.77;102107.31;4898652;29;20044;-94
2022/01/25 02:50:13;;;;;;;;;;;;;;;;;;;;;
2022/01/25 02:52:54;;;;;;;36.88;21.80;;;;;;;1.23;98.21;102094.19;4893397;29;20501;-95
2022/01/25 02:55:32;;;;;;;;;;;;;;;;;;;;;
2022/01/25 02:58:05;;;;;;;38.22;21.90;;;;;;;1.02;98.90;102057.28;4901553;29;20052;-93
2022/01/25 03:00:33;;;;;;;38.88;21.42;;;;;;;0.82;98.43;102033.41;4886307;29;20487;-95
2022/01/25 03:03:07;;;;;;;37.53;21.65;;;;;;;0.85;98.71;102032.59;4899824;29;20076;-95
2022/01/25 03:05:45;;;;;;;;;;;;;;;;;;;;;
2022/01/25 03:08:17;;;;;;;36.83;22.38;;;;;;;0.90;99.02;102034.44;4898623;29;20048;-94
2022/01/25 03:10:48;;;;;;;40.38;22.40;;;;;;;1.04;99.42;102066.88;4899503;29;20060;-94
2022/01/25 03:13:24;;;;;;;38.35;21.92;;;;;;;0.81;99.42;102020.34;4897469;29;20156;-93
2022/01/25 03:15:59;;;;;;;41.00;22.38;;;;;;;0.80;99.53;102010.75;4900306;29;20769;-94
2022/01/25 03:18:41;;;;;;;35.35;21.63;;;;;;;1.10;98.80;102062.63;4891846;29;20079;-95
2022/01/25 03:21:35;;;;;;;38.15;23.02;;;;;;;0.96;99.38;102038.88;4897089;29;20076;-95
2022/01/25 03:24:09;;;;;;;41.03;21.42;;;;;;;0.98;99.13;102052.84;4898189;29;20440;-94
2022/01/25 03:26:47;;;;;;;36.78;21.75;;;;;;;0.89;99.47;102040.50;4900089;29;20404;-95
2022/01/25 03:29:17;;;;;;;35.22;20.77;;;;;;;0.89;99.53;102048.34;4896689;29;20156;-93
2022/01/25 03:31:50;;;;;;;39.42;21.92;;;;;;;0.80;99.02;102029.91;4898607;29;20048;-95
2022/01/25 03:34:19;;;;;;;40.95;21.63;;;;;;;0.68;99.41;102021.84;4913235;29;20113;-94
2022/01/25 03:36:55;;;;;;;39.78;23.23;;;;;;;0.83;99.44;102050.81;4897923;29;20114;-94
2022/01/25 03:39:29;;;;;;;37.75;22.05;;;;;;;0.62;99.02;102022.63;4909408;29;20067;-95
2022/01/25 03:41:57;;;;;;;41.15;22.58;;;;;;;0.91;99.77;102082.28;4903506;29;20124;-95
2022/01/25 03:44:26;;;;;;;40.28;23.00;;;;;;;0.75;99.91;102046.31;4898793;29;20415;-96
2022/01/25 03:47:05;;;;;;;38.80;22.73;;;;;;;0.63;100.00;102028.72;4916343;29;20087;-95
2022/01/25 03:49:51;;;;;;;39.15;23.02;;;;;;;0.70;100.00;102038.41;4898997;29;20053;-96
2022/01/25 03:52:31;;;;;;;37.45;21.92;;;;;;;0.66;100.00;102029.63;4909329;29;20049;-96
2022/01/25 03:55:09;;;;;;;43.60;22.83;;;;;;;0.57;100.00;102012.94;4900970;29;20048;-93
2022/01/25 03:57:38;;;;;;;38.88;22.67;;;;;;;0.89;100.00;102064.00;4895528;29;20057;-94
2022/01/25 04:00:07;;;;;;;;;;;;;;;0.89;100.00;102061.38;4896311;29;20488;-96
2022/01/25 04:02:48;;;;;;;40.50;22.27;;;;;;;0.55;100.00;102012.03;4888707;29;20414;-95
2022/01/25 04:05:35;;;;;;;39.13;22.60;;;;;;;0.67;100.00;102033.13;4895859;29;20516;-96
2022/01/25 04:08:14;;;;;;;42.63;22.13;;;;;;;0.52;100.00;102010.25;4879898;29;20084;-95
2022/01/25 04:10:47;;;;;;;39.08;21.63;;;;;;;0.68;100.00;102043.59;4896552;29;20045;-96
2022/01/25 04:13:19;;;;;;;41.70;21.85;;;;;;;0.85;100.00;102075.19;4894383;29;20072;-92
2022/01/25 04:15:55;;;;;;;40.50;21.77;;;;;;;0.81;100.00;102057.72;4897993;29;20056;-96
2022/01/25 04:18:46;;;;;;;;;;;;;;;;;;;;;
2022/01/25 05:12:13;;;;;;;42.80;23.17;;;;;;;0.42;100.00;102017.84;4901846;29;20344;-94
2022/01/25 05:25:26;;;;;;;41.22;22.73;;;;;;;0.49;100.00;102057.09;4900915;29;20056;-94
2022/01/25 05:31:47;;;;;;;43.92;23.15;;;;;;;0.28;100.00;102035.81;4882184;29;20140;-92
2022/01/25 05:34:17;;;;;;;45.78;23.45;;;;;;;0.37;100.00;102046.41;4901397;29;20084;-93
2022/01/25 06:16:39;;;;;;;42.55;23.27;;;;;;;1.11;100.00;102069.59;4909971;29;20056;-93
2022/01/25 06:39:52;;;;;;;46.50;24.00;;;;;;;1.16;100.00;102024.47;4903263;29;20079;-94
2022/01/25 06:42:29;;;;;;;41.60;24.02;;;;;;;1.02;100.00;101990.31;4903296;29;20049;-92
2022/01/25 06:45:03;;;;;;;42.90;23.38;;;;;;;1.29;100.00;102034.25;4885927;29;20059;-92
2022/01/25 06:54:52;;;;;;;42.58;23.70;;;;;;;1.29;100.00;101999.47;4902908;29;20171;-92
2022/01/25 06:57:46;;;;;;;40.20;23.02;;;;;;;1.48;100.00;102017.19;4902321;29;20119;-93
2022/01/25 07:00:37;;;;;;;47.05;25.35;;;;;;;1.62;100.00;102033.06;4904282;29;20039;-92
2022/01/25 07:03:07;;;;;;;40.65;24.15;;;;;;;1.42;100.00;101997.06;4907697;29;20072;-94
2022/01/25 07:05:36;;;;;;;42.33;24.35;;;;;;;1.57;100.00;102009.50;4914836;29;20048;-94
2022/01/25 07:08:08;;;;;;;41.30;23.95;;;;;;;1.58;100.00;102008.63;4905984;29;20059;-93
2022/01/25 07:10:38;;;;;;;41.35;24.63;;;;;;;1.85;100.00;102054.31;4904817;29;20048;-92
2022/01/25 07:13:08;;;;;;;38.35;22.45;;;;;;;1.54;99.22;101990.31;4901846;29;20057;-94
2022/01/25 07:15:40;;;;;;;39.92;23.27;;;;;;;1.77;98.67;102031.56;4905389;29;20116;-92
2022/01/25 07:18:15;;;;;;;42.92;23.90;;;;;;;1.65;97.84;102007.00;4901381;29;20053;-92
2022/01/25 07:20:45;;;;;;;39.10;22.67;;;;;;;1.59;98.06;101997.31;4875209;29;20048;-93
2022/01/25 07:23:15;;;;;;;42.58;23.50;;;;;;;1.60;97.06;102000.81;4902632;29;20127;-92
2022/01/25 07:25:44;;;;;;;43.38;23.85;;;;;;;1.86;97.13;102037.78;4897460;29;20049;-92
2022/01/25 07:28:22;;;;;;;;;;;;;;;;;;;;;
2022/01/25 07:30:50;;;;;;;38.33;22.35;;;;;;;1.78;95.81;102027.22;4898986;29;20059;-92
2022/01/25 07:33:31;;;;;;;42.33;22.23;;;;;;;1.69;95.71;101999.25;4900407;29;20136;-93
2022/01/25 07:35:58;;;;;;;37.70;21.83;;;;;;;1.69;96.23;101994.03;4901038;29;20059;-93
2022/01/25 07:38:28;;;;;;;35.50;21.92;;;;;;;2.01;95.40;102044.13;4899430;29;20470;-93
2022/01/25 07:41:13;;;;;;;38.72;22.67;;;;;;;2.06;95.73;102052.88;4891491;29;20052;-93
2022/01/25 07:43:45;;;;;;;41.35;22.83;;;;;;;1.90;96.18;102029.13;4900739;29;20063;-93
2022/01/25 07:46:35;;;;;;;;;;;;;;;;;;;;;
2022/01/25 07:49:15;;;;;;;41.42;21.63;;;;;;;2.20;94.76;102058.31;4894099;29;20500;-93
2022/01/25 07:51:51;;;;;;;38.65;22.55;;;;;;;2.07;94.49;102020.66;4902983;29;20260;-92
2022/01/25 07:54:28;;;;;;;40.00;22.42;;;;;;;1.98;94.44;102001.38;4904597;29;20065;-92
2022/01/25 07:56:55;;;;;;;36.80;21.48;;;;;;;2.01;93.65;101998.81;4896631;29;20045;-94
2022/01/25 07:59:29;;;;;;;34.35;21.73;;;;;;;2.21;94.31;102027.81;4896091;29;20053;-93
2022/01/25 08:01:59;;;;;;;37.80;22.60;;;;;;;2.16;94.25;102024.28;4900678;29;20439;-92
2022/01/25 08:04:35;;;;;;;35.53;21.45;;;;;;;2.25;93.41;102040.94;4902155;29;20060;-92
2022/01/25 08:13:48;;;;;;;33.50;21.13;;;;;;;2.37;92.88;102045.44;4889614;29;20442;-91
2022/01/25 08:16:32;;;;;;;41.10;21.65;;;;;;;2.30;92.45;102027.94;4888721;29;20052;-91
2022/01/25 08:19:05;;;;;;;38.97;21.50;;;;;;;2.49;93.23;102052.59;4893425;29;20056;-91
2022/01/25 08:21:49;;;;;;;35.13;21.38;;;;;;;2.63;92.67;102077.19;4898362;29;20056;-93
2022/01/25 08:24:33;;;;;;;35.00;20.33;;;;;;;2.72;92.16;102079.88;4876467;29;20049;-93
2022/01/25 08:27:26;;;;;;;32.88;20.13;;;;;;;2.78;91.97;102085.19;4882659;29;20067;-94
2022/01/25 08:30:09;;;;;;;34.45;20.80;;;;;;;2.83;92.21;102087.00;4878651;29;20097;-92
2022/01/25 08:32:58;;;;;;;36.78;21.05;;;;;;;2.84;90.51;102085.25;4831557;29;20050;-96
2022/01/25 08:38:41;;;;;;;36.85;22.25;;;;;;;2.50;90.80;102028.19;4889161;29;20077;-96
2022/01/25 08:41:22;;;;;;;38.70;20.77;;;;;;;2.57;90.99;102030.00;4876337;29;20095;-96
2022/01/25 08:44:15;;;;;;;33.65;20.52;;;;;;;3.01;91.64;102095.91;4819627;29;20118;-92
2022/01/25 08:46:54;;;;;;;34.10;20.55;;;;;;;3.07;91.55;102093.38;4832709;29;20133;-92
2022/01/25 08:49:34;;;;;;;35.30;21.20;;;;;;;3.02;90.97;102079.34;4834379;29;20482;-92
2022/01/25 08:52:06;;;;;;;34.72;21.27;;;;;;;3.03;91.07;102071.53;4834836;29;20053;-93
2022/01/25 08:54:47;;;;;;;36.63;20.80;;;;;;;2.84;90.20;102048.63;4761562;30;20121;-93
2022/01/25 08:57:32;;;;;;;36.88;20.67;;;;;;;3.07;90.16;102067.22;4759265;30;20052;-92
2022/01/25 09:00:16;;;;;;;35.03;21.05;;;;;;;3.27;91.57;102072.66;4815171;29;21663;-91
2022/01/25 09:02:43;;;;;;;37.15;22.35;;;;;;;3.45;88.71;102092.03;4843256;29;20060;-91
2022/01/25 09:05:11;;;;;;;35.30;21.25;;;;;;;3.18;88.39;102045.50;4841712;29;20054;-91
2022/01/25 09:07:40;;;;;;;35.60;21.67;;;;;;;3.48;88.11;102099.00;4837673;29;20049;-91
2022/01/25 09:10:09;;;;;;;32.45;21.02;;;;;;;3.34;88.58;102058.72;4818326;29;20708;-91
2022/01/25 09:12:36;;;;;;;33.60;20.70;;;;;;;3.28;88.96;102048.22;4839646;29;20053;-94
2022/01/25 09:15:05;;;;;;;34.10;20.40;;;;;;;3.49;88.09;102069.34;4969353;23;20119;-94
2022/01/25 09:17:46;;;;;;;37.67;20.95;;;;;;;3.56;86.83;102072.91;4918273;29;20048;-91
2022/01/25 09:20:16;;;;;;;35.42;20.83;;;;;;;3.62;85.80;102076.44;4903845;29;20044;-92
2022/01/25 09:22:46;;;;;;;35.05;21.50;;;;;;;3.50;86.50;102058.00;4906872;29;20044;-94
2022/01/25 09:25:30;;;;;;;34.78;20.30;;;;;;;3.79;86.63;102095.78;4907035;29;20068;-93
2022/01/25 09:27:59;;;;;;;35.00;20.80;;;;;;;3.82;85.15;102102.81;4892510;29;20583;-92
2022/01/25 09:30:31;;;;;;;33.22;20.13;;;;;;;3.81;84.40;102091.44;4910804;29;20043;-92
2022/01/25 09:32:59;;;;;;;31.50;19.85;;;;;;;3.53;84.64;102048.44;4915150;29;20060;-92
2022/01/25 09:35:26;;;;;;;33.58;21.80;;;;;;;3.76;84.87;102101.03;4915476;29;20057;-91
2022/01/25 09:37:53;;;;;;;39.03;22.35;;;;;;;3.80;83.34;102120.25;4914727;29;20058;-92
2022/01/25 09:40:21;;;;;;;34.50;21.20;;;;;;;3.59;83.84;102086.91;4917023;29;20059;-91
2022/01/25 09:42:53;;;;;;;39.50;21.95;;;;;;;3.58;84.03;102082.53;4917851;29;20052;-93
2022/01/25 09:45:21;;;;;;;36.55;21.85;;;;;;;3.69;84.08;102087.84;4926647;29;20047;-90
2022/01/25 09:47:52;;;;;;;48.55;22.15;;;;;;;3.87;83.88;102114.22;4921907;29;20048;-93
2022/01/25 09:50:20;;;;;;;36.47;21.15;;;;;;;3.62;83.14;102050.25;4916880;29;20155;-93
2022/01/25 09:52:47;;;;;;;37.60;22.27;;;;;;;4.02;84.60;102113.44;4919904;29;20052;-92
2022/01/25 09:55:18;;;;;;;35.60;21.60;;;;;;;3.92;83.69;102088.91;4920402;29;20063;-92
2022/01/25 09:57:45;;;;;;;39.70;22.13;;;;;;;4.06;83.36;102099.50;4914020;29;20067;-92
2022/01/25 10:00:14;;;;;;;37.15;22.42;;;;;;;4.06;81.84;102096.88;4916894;29;20062;-93
2022/01/25 10:02:50;;;;;;;39.03;23.15;;;;;;;4.04;82.64;102102.09;4895444;29;20053;-94
2022/01/25 10:05:37;;;;;;;39.45;21.38;;;;;;;4.11;81.43;102093.41;4915642;29;20051;-94
2022/01/25 10:08:09;;;;;;;42.05;22.00;;;;;;;4.23;82.24;102110.97;4911066;29;20563;-93
2022/01/25 10:11:08;;;;;;;38.20;22.05;;;;;;;4.25;82.09;102105.75;4905508;29;20047;-92
2022/01/25 10:13:38;;;;;;;38.33;21.15;;;;;;;4.37;81.21;102118.94;4910711;29;20099;-93
2022/01/25 10:16:13;;;;;;;36.20;20.80;;;;;;;4.27;80.19;102098.75;4915629;29;20060;-93
2022/01/25 10:18:51;;;;;;;34.05;20.40;;;;;;;4.28;80.26;102114.50;4911611;29;20087;-94
2022/01/25 10:21:29;;;;;;;35.28;20.40;;;;;;;4.37;80.26;102121.56;4908636;29;20052;-94
2022/01/25 10:24:18;;;;;;;29.88;18.90;;;;;;;4.46;80.91;102111.09;4909710;29;20104;-93
2022/01/25 10:27:00;;;;;;;32.63;18.55;;;;;;;4.16;79.78;102061.97;4919814;29;20043;-93
2022/01/25 10:29:34;;;;;;;30.02;18.45;;;;;;;4.43;79.97;102103.19;4901098;29;20060;-93
2022/01/25 10:32:12;;;;;;;30.83;17.52;;;;;;;4.51;79.03;102105.00;4920372;29;20079;-92
2022/01/25 10:34:44;;;;;;;28.50;16.73;;;;;;;4.61;79.12;102120.78;4903033;29;20055;-93
2022/01/25 10:37:17;;;;;;;28.92;17.05;;;;;;;4.11;79.57;102058.44;4915618;29;20088;-92
2022/01/25 10:39:51;;;;;;;31.80;17.95;;;;;;;4.32;79.42;102108.41;4913473;29;20044;-93
2022/01/25 10:42:29;;;;;;;31.13;17.75;;;;;;;4.02;81.24;102076.75;4925638;29;20067;-93
2022/01/25 10:45:16;;;;;;;29.58;17.65;;;;;;;4.11;81.51;102092.53;4921184;29;20116;-92
2022/01/25 10:47:48;;;;;;;33.03;18.45;;;;;;;4.05;81.09;102063.66;4918942;29;20048;-92
2022/01/25 10:50:22;;;;;;;31.38;18.85;;;;;;;4.30;81.75;102112.75;4920604;29;20044;-93
2022/01/25 10:53:16;;;;;;;31.50;18.67;;;;;;;4.12;80.88;102066.31;4921319;29;20048;-93
2022/01/25 10:55:51;;;;;;;30.20;17.35;;;;;;;4.16;80.70;102073.34;4923825;29;20068;-94
2022/01/25 10:58:22;;;;;;;33.22;17.70;;;;;;;4.27;80.38;102089.13;4920353;29;20060;-93
2022/01/25 11:00:51;;;;;;;27.48;17.08;;;;;;;4.21;79.59;102089.13;4924510;29;20119;-93
2022/01/25 11:03:42;;;;;;;30.00;18.08;;;;;;;4.06;80.58;102091.63;4925426;29;20064;-94
2022/01/25 11:06:19;;;;;;;32.17;18.35;;;;;;;4.18;80.81;102105.69;4920013;29;20060;-92
2022/01/25 11:08:54;;;;;;;31.50;18.80;;;;;;;3.93;80.74;102050.50;4915895;29;20056;-93
2022/01/25 11:11:29;;;;;;;29.77;18.20;;;;;;;3.91;81.11;102049.59;4920138;29;20051;-94
2022/01/25 11:14:00;;;;;;;33.28;20.10;;;;;;;3.99;81.12;102072.34;4918254;29;20076;-93
2022/01/25 11:16:28;;;;;;;32.13;19.90;;;;;;;4.03;81.28;102086.38;4922351;29;20071;-94
2022/01/25 11:19:18;;;;;;;33.15;19.83;;;;;;;3.96;81.86;102081.94;4899722;29;20052;-95
2022/01/25 11:21:45;;;;;;;;;;;;;;;4.14;81.72;102103.03;4918738;29;20416;-94
2022/01/25 11:24:13;;;;;;;33.97;19.27;;;;;;;4.13;80.88;102103.91;4921304;29;19927;-93
2022/01/25 11:26:45;;;;;;;33.60;19.60;;;;;;;4.10;81.55;102099.50;4925645;29;20059;-93
2022/01/25 11:29:16;;;;;;;34.45;20.63;;;;;;;4.04;81.53;102078.53;4918499;29;20056;-93
2022/01/25 11:31:50;;;;;;;34.78;20.98;;;;;;;4.12;81.29;102097.78;4920891;29;20507;-94
2022/01/25 11:34:21;;;;;;;36.33;21.20;;;;;;;4.01;80.76;102067.13;4923635;29;20055;-92
2022/01/25 11:36:56;;;;;;;34.78;20.90;;;;;;;3.82;80.85;102050.41;4906381;29;20048;-94
2022/01/25 11:39:31;;;;;;;34.22;20.13;;;;;;;3.85;81.86;102053.91;4914594;29;20048;-93
2022/01/25 11:42:06;;;;;;;39.00;20.77;;;;;;;3.68;82.23;102016.25;4920493;29;20062;-92
2022/01/25 11:44:54;;;;;;;35.83;21.13;;;;;;;4.00;82.35;102075.84;4922954;29;20087;-94
2022/01/25 11:48:01;;;;;;;36.92;20.17;;;;;;;4.07;81.98;102073.31;4924925;29;20585;-93
2022/01/25 11:50:34;;;;;;;34.25;20.48;;;;;;;4.00;81.32;102068.00;4920464;29;20135;-93
2022/01/25 11:53:07;;;;;;;35.10;20.80;;;;;;;3.98;81.42;102069.72;4923039;29;20063;-93
2022/01/25 11:55:38;;;;;;;33.22;20.35;;;;;;;4.01;81.56;102083.72;4925812;29;20097;-94
2022/01/25 11:58:27;;;;;;;35.33;21.10;;;;;;;3.94;81.45;102086.28;4925592;29;20048;-95
2022/01/25 12:01:03;;;;;;;33.00;18.73;;;;;;;3.92;81.57;102077.56;4921478;29;20053;-91
2022/01/25 12:03:46;;;;;;;38.13;21.20;;;;;;;3.71;81.89;102049.44;4906747;29;20289;-94
2022/01/25 12:06:24;;;;;;;35.72;20.60;;;;;;;3.75;82.08;102059.97;4910622;29;20099;-93
2022/01/25 12:09:41;;;;;;;;;;;;;;;;;;;;;
2022/01/25 12:12:09;;;;;;;42.13;22.08;;;;;;;3.57;81.69;102025.78;4915493;29;20048;-93
2022/01/25 12:14:40;;;;;;;39.40;22.52;;;;;;;3.71;82.26;102071.28;4917761;29;20072;-92
2022/01/25 12:17:19;;;;;;;42.45;23.23;;;;;;;3.49;83.20;102007.38;4911348;29;20048;-93
2022/01/25 12:19:57;;;;;;;36.53;21.90;;;;;;;3.65;82.01;102026.69;4917026;29;20063;-94
2022/01/25 12:22:35;;;;;;;38.30;22.20;;;;;;;3.78;81.99;102049.50;4912971;29;20048;-93
2022/01/25 12:25:15;;;;;;;37.95;22.50;;;;;;;3.77;82.58;102044.25;4911725;29;20052;-94
2022/01/25 12:28:19;;;;;;;40.78;22.95;;;;;;;3.90;81.64;102063.56;4921409;29;20056;-94
2022/01/25 12:30:48;;;;;;;40.40;21.58;;;;;;;3.93;82.16;102068.84;4916870;29;20079;-93
2022/01/25 12:33:27;;;;;;;39.13;22.10;;;;;;;3.50;81.71;102000.38;4911719;29;20060;-95
2022/01/25 12:36:09;;;;;;;38.03;21.55;;;;;;;3.73;81.67;102042.47;4911463;29;20047;-94
2022/01/25 12:38:43;;;;;;;37.90;22.35;;;;;;;3.87;81.46;102060.06;4897500;29;20052;-93
2022/01/25 12:41:22;;;;;;;38.58;22.00;;;;;;;3.80;81.79;102060.84;4916372;29;20062;-94
2022/01/25 12:43:54;;;;;;;40.88;21.20;;;;;;;3.76;82.21;102051.25;4914343;29;20666;-94
2022/01/25 12:46:27;;;;;;;36.63;21.02;;;;;;;3.67;82.28;102045.91;4914290;29;20063;-93
2022/01/25 12:48:56;;;;;;;37.80;21.90;;;;;;;3.64;82.04;102055.50;4917260;29;20048;-94
2022/01/25 12:51:35;;;;;;;38.97;21.58;;;;;;;3.67;82.58;102053.78;4917266;29;20059;-94
2022/01/25 12:54:06;;;;;;;40.67;22.25;;;;;;;3.61;83.80;102042.41;4908932;29;20066;-94
2022/01/25 12:56:42;;;;;;;41.85;20.88;;;;;;;3.62;83.01;102052.00;4914995;29;20056;-93
2022/01/25 12:59:16;;;;;;;39.45;21.80;;;;;;;3.63;82.97;102059.84;4906172;29;20051;-94
2022/01/25 13:01:45;;;;;;;38.30;21.42;;;;;;;3.42;82.41;102021.28;4909000;29;20099;-93
2022/01/25 13:04:14;;;;;;;40.63;22.20;;;;;;;3.45;82.99;102028.31;4896167;29;20107;-94
2022/01/25 13:06:54;;;;;;;43.85;23.05;;;;;;;3.58;83.34;102058.09;4915426;29;20757;-93
2022/01/25 13:09:37;;;;;;;41.83;21.33;;;;;;;3.59;82.64;102047.63;4912606;29;20619;-94
2022/01/25 13:14:50;;;;;;;37.53;21.30;;;;;;;3.40;82.99;102003.81;4914252;29;20060;-94
2022/01/25 13:17:21;;;;;;;37.60;20.70;;;;;;;3.54;83.25;102023.13;4901517;29;20388;-94
2022/01/25 13:19:56;;;;;;;38.50;20.77;;;;;;;3.41;83.01;101984.63;4909002;29;20064;-93
2022/01/25 13:22:35;;;;;;;37.03;20.63;;;;;;;3.77;82.67;102037.28;4915169;29;20056;-94
2022/01/25 13:28:20;;;;;;;37.47;20.88;;;;;;;3.57;82.49;102015.28;4911758;29;20484;-95
2022/01/25 13:31:13;;;;;;;39.97;21.27;;;;;;;3.46;83.29;102003.88;4900446;29;20144;-93
2022/01/25 13:33:43;;;;;;;38.17;20.70;;;;;;;3.40;83.43;101994.22;4910347;29;20052;-93
2022/01/25 13:36:19;;;;;;;38.35;21.90;;;;;;;3.34;82.96;101983.69;4892312;29;20048;-94
2022/01/25 13:38:49;;;;;;;37.45;20.50;;;;;;;3.38;82.81;101975.00;4895021;29;20045;-94
2022/01/25 13:41:30;;;;;;;37.95;20.80;;;;;;;3.60;82.99;102019.69;4907412;29;20556;-93
2022/01/25 13:46:38;;;;;;;38.38;21.30;;;;;;;3.60;82.67;102020.56;4916724;29;20533;-93
2022/01/25 13:49:15;;;;;;;37.42;22.02;;;;;;;3.60;82.91;102022.31;4909808;29;20049;-94
2022/01/25 13:51:48;;;;;;;42.22;21.58;;;;;;;3.59;83.70;102020.56;4912907;29;20082;-93
2022/01/25 13:54:23;;;;;;;39.08;20.77;;;;;;;3.27;83.38;101976.66;4913480;29;20067;-92
2022/01/25 13:56:53;;;;;;;43.03;22.00;;;;;;;3.26;83.65;101979.25;4920405;29;20044;-94
2022/01/25 13:59:23;;;;;;;44.03;21.55;;;;;;;3.43;83.46;102011.69;4920953;29;20075;-92
2022/01/25 14:01:52;;;;;;;41.00;21.55;;;;;;;3.15;82.97;101977.41;4919998;29;20048;-93
2022/01/25 14:04:27;;;;;;;43.47;22.02;;;;;;;3.22;84.19;101985.31;4917263;29;20055;-93
2022/01/25 14:06:56;;;;;;;43.25;22.00;;;;;;;3.45;84.82;102020.44;4900067;29;20051;-92
2022/01/25 14:09:31;;;;;;;46.05;22.75;;;;;;;3.28;84.37;102014.19;4914575;29;20052;-91
2022/01/25 14:23:29;;;;;;;42.47;23.15;;;;;;;3.18;85.71;102034.16;4910021;29;20104;-93
2022/01/25 14:26:51;;;;;;;48.42;23.02;;;;;;;2.98;85.86;101997.34;4904515;29;20055;-93
2022/01/25 14:29:23;;;;;;;48.53;24.40;;;;;;;2.81;86.36;101978.88;4901681;29;20071;-92
2022/01/25 14:32:28;;;;;;;50.13;26.33;;;;;;;2.90;85.88;102000.72;4904495;29;20060;-95
2022/01/25 14:35:08;;;;;;;45.15;23.38;;;;;;;3.00;85.75;102027.00;4896511;29;20150;-92
2022/01/25 14:37:57;;;;;;;44.20;22.98;;;;;;;2.97;87.00;102034.84;4897229;29;20348;-93
2022/01/25 14:40:28;;;;;;;51.45;24.70;;;;;;;2.76;86.98;101997.97;4894537;29;20102;-92
2022/01/25 14:43:03;;;;;;;48.70;25.27;;;;;;;2.93;86.81;102038.28;4897308;29;20075;-92
2022/01/25 14:45:41;;;;;;;51.65;24.30;;;;;;;2.74;87.11;102000.56;4904770;29;20130;-93
2022/01/25 14:48:14;;;;;;;53.75;25.15;;;;;;;2.66;87.55;101980.44;4887965;29;20457;-94
2022/01/25 14:50:42;;;;;;;48.95;24.98;;;;;;;2.86;88.01;102010.28;4901143;29;20048;-92
2022/01/25 14:53:37;;;;;;;49.97;24.88;;;;;;;3.11;86.88;102032.34;4900492;29;20127;-91
2022/01/25 14:56:12;;;;;;;52.97;25.17;;;;;;;2.73;86.55;101966.56;4907342;29;20077;-92
2022/01/25 15:01:21;;;;;;;53.53;25.85;;;;;;;2.92;87.61;102017.31;4904976;29;20140;-93
2022/01/25 15:03:51;;;;;;;54.95;26.10;;;;;;;2.68;87.76;101976.97;4907813;29;20059;-93
2022/01/25 15:06:22;;;;;;;54.05;26.00;;;;;;;2.91;87.91;102029.53;4899945;29;20057;-92
2022/01/25 15:08:59;;;;;;;56.58;26.30;;;;;;;2.74;87.95;101994.47;4902075;29;20685;-93
2022/01/25 15:11:32;;;;;;;56.63;25.08;;;;;;;2.79;88.16;102000.63;4912580;29;20120;-91
2022/01/25 15:14:08;;;;;;;56.38;26.40;;;;;;;2.75;87.80;101999.72;4900077;29;20058;-91
2022/01/25 15:16:38;;;;;;;59.13;27.23;;;;;;;2.77;88.17;102010.19;4902827;29;20100;-92
2022/01/25 15:19:05;;;;;;;61.03;28.52;;;;;;;2.66;87.83;101997.00;4900916;29;20068;-92
2022/01/25 15:21:37;;;;;;;59.50;26.95;;;;;;;2.81;88.64;102030.31;4898310;29;20052;-91
2022/01/25 15:24:04;;;;;;;58.78;27.58;;;;;;;2.75;88.90;102027.63;4898363;29;20072;-93
2022/01/25 15:26:36;;;;;;;66.85;28.98;;;;;;;2.74;89.23;102020.63;4880304;29;20056;-93
2022/01/25 15:29:08;;;;;;;61.33;27.60;;;;;;;2.71;89.56;102010.13;4894962;29;20696;-93
2022/01/25 15:31:40;;;;;;;58.80;28.15;;;;;;;2.60;89.15;101976.00;4888347;29;20117;-92
2022/01/25 15:36:39;;;;;;;60.67;27.90;;;;;;;2.53;89.42;101962.84;4874467;29;20060;-93
2022/01/25 15:39:28;;;;;;;58.35;28.35;;;;;;;2.53;89.19;101970.69;4873602;29;20060;-93
2022/01/25 15:41:59;;;;;;;60.45;28.08;;;;;;;2.58;89.87;101989.94;4881038;29;20052;-94
2022/01/25 15:45:26;;;;;;;58.75;26.75;;;;;;;2.64;89.75;101995.25;4887815;29;20103;-91
2022/01/25 15:48:16;;;;;;;63.78;28.40;;;;;;;2.50;90.45;101988.97;4887428;29;20063;-94
2022/01/25 15:51:02;;;;;;;63.22;28.35;;;;;;;2.55;90.75;102013.41;4885721;29;20057;-92
2022/01/25 15:53:29;;;;;;;59.40;27.73;;;;;;;2.60;90.05;102020.47;4872951;29;20061;-94
2022/01/25 15:55:59;;;;;;;60.22;25.63;;;;;;;2.55;89.85;102002.97;4976435;23;20069;-91
2022/01/25 15:58:45;;;;;;;59.95;27.83;;;;;;;2.68;89.41;102028.38;4873145;29;20101;-93
2022/01/25 16:01:28;;;;;;;63.25;27.98;;;;;;;2.68;89.96;102037.13;4875393;29;20465;-92
2022/01/25 16:03:55;;;;;;;58.97;28.75;;;;;;;2.67;90.28;102037.13;4871976;29;20052;-93